createdAt,value
2022-08-31T00:02:09.791Z,20.54
2022-08-31T00:04:36.861Z,20.43
2022-08-31T00:07:04.180Z,20.44
2022-08-31T00:09:32.928Z,20.45
2022-08-31T00:12:00.369Z,20.38
2022-08-31T00:14:27.189Z,20.33
2022-08-31T00:16:53.911Z,20.28
2022-08-31T00:19:20.643Z,20.21
2022-08-31T00:21:47.476Z,20.21
2022-08-31T00:24:14.580Z,20.14
2022-08-31T00:26:42.188Z,20.15
2022-08-31T00:29:09.506Z,20.16
2022-08-31T00:31:36.429Z,20.25
2022-08-31T00:34:03.982Z,20.32
2022-08-31T00:36:30.711Z,20.41
2022-08-31T00:38:57.945Z,20.47
2022-08-31T00:41:27.887Z,20.51
2022-08-31T00:44:03.718Z,20.47
2022-08-31T00:46:32.944Z,20.32
2022-08-31T00:49:04.590Z,20.28
2022-08-31T00:51:34.172Z,20.15
2022-08-31T00:54:00.972Z,20.11
2022-08-31T00:56:27.817Z,20.00
2022-08-31T00:58:55.114Z,20.02
2022-08-31T01:01:22.752Z,20.08
2022-08-31T01:03:49.989Z,20.04
2022-08-31T01:06:17.557Z,20.03
2022-08-31T01:08:45.483Z,19.91
2022-08-31T01:11:13.377Z,19.87
2022-08-31T01:13:40.556Z,19.85
2022-08-31T01:16:11.235Z,19.85
2022-08-31T01:18:39.015Z,19.87
2022-08-31T01:21:13.909Z,19.87
2022-08-31T01:23:43.565Z,19.85
2022-08-31T01:26:15.397Z,19.84
2022-08-31T01:28:42.166Z,19.83
2022-08-31T01:31:33.109Z,19.74
2022-08-31T01:34:01.313Z,19.74
2022-08-31T01:36:28.520Z,19.71
2022-08-31T01:38:56.357Z,19.58
2022-08-31T01:41:23.438Z,19.63
2022-08-31T01:43:50.795Z,19.60
2022-08-31T01:46:17.533Z,19.59
2022-08-31T01:48:45.629Z,19.48
2022-08-31T01:51:14.200Z,19.46
2022-08-31T01:53:45.281Z,19.45
2022-08-31T01:56:14.410Z,19.42
2022-08-31T01:58:41.431Z,19.45
2022-08-31T02:01:38.783Z,19.42
2022-08-31T02:04:06.920Z,19.41
2022-08-31T02:06:34.204Z,19.39
2022-08-31T02:09:07.035Z,19.39
2022-08-31T02:11:33.782Z,19.23
2022-08-31T02:14:00.633Z,19.27
2022-08-31T02:16:27.661Z,19.27
2022-08-31T02:18:54.516Z,19.30
2022-08-31T02:21:21.344Z,19.34
2022-08-31T02:23:48.182Z,19.28
2022-08-31T02:26:15.489Z,19.19
2022-08-31T02:28:45.519Z,19.20
2022-08-31T02:31:12.579Z,19.10
2022-08-31T02:33:46.901Z,19.13
2022-08-31T02:36:13.689Z,19.07
2022-08-31T02:38:41.895Z,19.08
2022-08-31T02:41:09.807Z,19.13
2022-08-31T02:43:38.901Z,19.02
2022-08-31T02:46:05.774Z,18.98
2022-08-31T02:48:38.568Z,18.94
2022-08-31T02:51:07.820Z,18.92
2022-08-31T02:53:35.084Z,18.92
2022-08-31T02:56:02.072Z,18.81
2022-08-31T02:58:29.355Z,18.80
2022-08-31T03:00:56.198Z,18.83
2022-08-31T03:03:23.449Z,18.90
2022-08-31T03:05:50.475Z,18.85
2022-08-31T03:08:17.913Z,18.85
2022-08-31T03:10:47.484Z,18.83
2022-08-31T03:13:14.501Z,18.84
2022-08-31T03:15:43.030Z,18.80
2022-08-31T03:18:10.371Z,18.78
2022-08-31T03:20:37.152Z,18.78
2022-08-31T03:23:05.323Z,18.74
2022-08-31T03:25:32.681Z,18.75
2022-08-31T03:27:59.805Z,18.75
2022-08-31T03:30:31.402Z,18.75
2022-08-31T03:33:03.111Z,18.71
2022-08-31T03:35:32.077Z,18.72
2022-08-31T03:37:58.986Z,18.71
2022-08-31T03:40:25.753Z,18.77
2022-08-31T03:42:53.051Z,18.76
2022-08-31T03:45:20.252Z,18.67
2022-08-31T03:47:47.390Z,18.60
2022-08-31T03:50:16.280Z,18.60
2022-08-31T03:52:57.231Z,18.46
2022-08-31T03:55:23.985Z,18.43
2022-08-31T03:57:51.570Z,18.47
2022-08-31T04:00:18.983Z,18.48
2022-08-31T04:02:52.893Z,18.39
2022-08-31T04:05:35.678Z,18.35
2022-08-31T04:08:14.756Z,18.45
2022-08-31T04:11:00.043Z,18.37
2022-08-31T04:13:33.101Z,18.34
2022-08-31T04:16:20.909Z,18.38
2022-08-31T04:19:11.581Z,18.35
2022-08-31T04:21:47.694Z,18.41
2022-08-31T04:24:14.457Z,18.40
2022-08-31T04:26:41.736Z,18.39
2022-08-31T04:29:13.093Z,18.31
2022-08-31T04:31:40.628Z,18.39
2022-08-31T04:34:08.267Z,18.36
2022-08-31T04:36:35.714Z,18.27
2022-08-31T04:39:03.871Z,18.24
2022-08-31T04:41:32.352Z,18.23
2022-08-31T04:44:00.737Z,18.19
2022-08-31T04:46:27.941Z,18.17
2022-08-31T04:48:55.916Z,18.11
2022-08-31T04:51:25.987Z,18.09
2022-08-31T04:53:53.118Z,18.06
2022-08-31T04:56:40.925Z,18.12
2022-08-31T04:59:09.282Z,18.17
2022-08-31T05:01:45.406Z,18.12
2022-08-31T05:04:36.585Z,18.09
2022-08-31T05:07:03.859Z,17.99
2022-08-31T05:09:31.099Z,18.04
2022-08-31T05:11:57.927Z,18.12
2022-08-31T05:14:25.854Z,18.19
2022-08-31T05:17:01.359Z,18.24
2022-08-31T05:19:32.110Z,18.28
2022-08-31T05:21:59.240Z,18.27
2022-08-31T05:24:26.327Z,18.32
2022-08-31T05:26:56.380Z,18.28
2022-08-31T05:29:25.131Z,18.29
2022-08-31T05:32:03.985Z,18.23
2022-08-31T05:34:31.843Z,18.30
2022-08-31T05:36:58.672Z,18.26
2022-08-31T05:39:30.863Z,18.28
2022-08-31T05:41:57.609Z,18.24
2022-08-31T05:44:26.094Z,18.25
2022-08-31T05:46:57.398Z,18.27
2022-08-31T05:49:27.909Z,18.37
2022-08-31T05:51:56.550Z,18.32
2022-08-31T05:54:23.444Z,18.36
2022-08-31T05:56:50.160Z,18.43
2022-08-31T05:59:16.958Z,18.52
2022-08-31T06:01:44.590Z,18.54
2022-08-31T06:04:14.851Z,18.58
2022-08-31T06:06:43.529Z,18.58
2022-08-31T06:09:13.245Z,18.64
2022-08-31T06:11:42.365Z,18.59
2022-08-31T06:14:12.504Z,18.60
2022-08-31T06:16:40.111Z,18.59
2022-08-31T06:19:07.896Z,18.70
2022-08-31T06:21:49.793Z,18.70
2022-08-31T06:24:20.641Z,18.79
2022-08-31T06:26:58.389Z,18.71
2022-08-31T06:29:31.698Z,18.71
2022-08-31T06:32:00.500Z,18.72
2022-08-31T06:34:29.370Z,18.74
2022-08-31T06:37:05.747Z,18.84
2022-08-31T06:39:53.864Z,18.88
2022-08-31T06:42:40.877Z,18.86
2022-08-31T06:45:27.931Z,18.81
2022-08-31T06:48:03.541Z,18.84
2022-08-31T06:50:30.309Z,18.90
2022-08-31T06:52:58.358Z,18.95
2022-08-31T06:55:46.027Z,18.89
2022-08-31T06:58:31.595Z,18.89
2022-08-31T07:01:35.734Z,18.86
2022-08-31T07:04:11.611Z,19.01
2022-08-31T07:06:42.750Z,19.11
2022-08-31T07:09:13.728Z,19.08
2022-08-31T07:11:44.769Z,19.15
2022-08-31T07:14:14.980Z,19.07
2022-08-31T07:16:43.424Z,19.05
2022-08-31T07:19:11.919Z,19.11
2022-08-31T07:21:45.234Z,19.23
2022-08-31T07:24:14.718Z,19.28
2022-08-31T07:26:46.695Z,19.37
2022-08-31T07:29:18.304Z,19.28
2022-08-31T07:31:48.499Z,19.42
2022-08-31T07:34:27.215Z,19.56
2022-08-31T07:37:32.983Z,19.63
2022-08-31T07:40:18.662Z,19.64
2022-08-31T07:42:47.083Z,19.57
2022-08-31T07:45:23.187Z,19.46
2022-08-31T07:47:53.224Z,19.57
2022-08-31T07:50:22.736Z,19.65
2022-08-31T07:53:08.668Z,19.80
2022-08-31T07:55:56.866Z,19.60
2022-08-31T07:58:31.225Z,19.81
2022-08-31T08:01:00.549Z,19.88
2022-08-31T08:03:30.092Z,19.90
2022-08-31T08:06:17.659Z,19.43
2022-08-31T08:09:24.005Z,19.51
2022-08-31T08:12:25.251Z,19.56
2022-08-31T08:15:06.644Z,19.39
2022-08-31T08:17:52.231Z,19.57
2022-08-31T08:20:35.358Z,19.50
2022-08-31T08:23:11.491Z,19.11
2022-08-31T08:26:09.607Z,19.36
2022-08-31T08:29:18.877Z,19.26
2022-08-31T08:31:53.056Z,19.34
2022-08-31T08:34:21.860Z,19.43
2022-08-31T08:36:58.369Z,19.37
2022-08-31T08:39:25.127Z,19.30
2022-08-31T08:42:12.576Z,19.32
2022-08-31T08:44:40.334Z,19.16
2022-08-31T08:47:15.242Z,19.36
2022-08-31T08:49:54.216Z,19.35
2022-08-31T08:52:44.435Z,19.49
2022-08-31T08:55:18.368Z,19.71
2022-08-31T08:57:49.588Z,19.97
2022-08-31T09:00:20.068Z,20.08
2022-08-31T09:03:01.255Z,20.05
2022-08-31T09:06:08.044Z,20.10
2022-08-31T09:08:54.835Z,20.23
2022-08-31T09:11:53.260Z,20.38
2022-08-31T09:14:24.578Z,20.53
2022-08-31T09:17:01.856Z,20.48
2022-08-31T09:19:28.826Z,20.60
2022-08-31T09:21:58.084Z,20.52
2022-08-31T09:24:30.377Z,20.83
2022-08-31T09:27:20.319Z,20.85
2022-08-31T09:29:56.058Z,20.69
2022-08-31T09:32:29.134Z,20.50
2022-08-31T09:35:01.814Z,20.42
2022-08-31T09:37:45.078Z,20.86
2022-08-31T09:40:23.829Z,20.78
2022-08-31T09:43:05.005Z,21.12
2022-08-31T09:45:38.739Z,21.26
2022-08-31T09:48:09.227Z,21.34
2022-08-31T09:50:46.317Z,20.87
2022-08-31T09:53:34.685Z,21.34
2022-08-31T09:56:16.870Z,21.52
2022-08-31T09:58:49.130Z,21.50
2022-08-31T10:01:23.341Z,21.36
2022-08-31T10:03:50.495Z,21.25
2022-08-31T10:06:26.167Z,21.11
2022-08-31T10:09:02.809Z,20.97
2022-08-31T10:11:31.620Z,20.93
2022-08-31T10:14:06.319Z,20.89
2022-08-31T10:16:35.672Z,21.10
2022-08-31T10:19:06.624Z,21.06
2022-08-31T10:21:53.561Z,21.19
2022-08-31T10:24:34.683Z,20.82
2022-08-31T10:27:18.904Z,21.19
2022-08-31T10:29:53.066Z,21.04
2022-08-31T10:32:45.281Z,20.69
2022-08-31T10:35:22.937Z,20.81
2022-08-31T10:38:08.217Z,20.81
2022-08-31T10:41:12.521Z,20.53
2022-08-31T10:44:06.303Z,20.62
2022-08-31T10:46:35.660Z,20.51
2022-08-31T10:49:04.525Z,20.48
2022-08-31T10:51:53.249Z,20.18
2022-08-31T10:54:41.225Z,20.12
2022-08-31T10:57:31.427Z,19.97
2022-08-31T11:00:37.928Z,19.80
2022-08-31T11:03:07.493Z,19.47
2022-08-31T11:05:37.980Z,19.25
2022-08-31T11:08:12.342Z,19.13
2022-08-31T11:10:49.164Z,18.86
2022-08-31T11:13:36.296Z,18.81
2022-08-31T11:16:21.340Z,18.72
2022-08-31T11:18:52.006Z,18.59
2022-08-31T11:21:45.575Z,18.47
2022-08-31T11:25:01.060Z,18.30
2022-08-31T11:27:37.051Z,18.24
2022-08-31T11:30:16.466Z,18.16
2022-08-31T11:32:52.533Z,18.11
2022-08-31T11:36:05.477Z,18.19
2022-08-31T11:39:01.810Z,18.29
2022-08-31T11:41:31.351Z,18.34
2022-08-31T11:43:58.476Z,18.27
2022-08-31T11:46:28.754Z,18.35
2022-08-31T11:48:55.484Z,18.40
2022-08-31T11:51:46.233Z,18.51
2022-08-31T11:54:56.671Z,18.58
2022-08-31T11:57:36.914Z,18.65
2022-08-31T12:00:18.881Z,18.75
2022-08-31T12:02:45.865Z,18.80
2022-08-31T12:05:13.062Z,18.93
2022-08-31T12:07:45.042Z,19.23
2022-08-31T12:10:27.809Z,19.47
2022-08-31T12:13:09.462Z,19.52
2022-08-31T12:16:15.060Z,19.69
2022-08-31T12:18:57.947Z,20.00
2022-08-31T12:21:53.337Z,20.04
2022-08-31T12:24:49.261Z,20.35
2022-08-31T12:27:44.187Z,20.71
2022-08-31T12:30:18.934Z,21.02
2022-08-31T12:32:46.581Z,21.13
2022-08-31T12:35:28.261Z,21.07
2022-08-31T12:38:19.133Z,21.35
2022-08-31T12:40:51.581Z,21.92
2022-08-31T12:43:22.041Z,21.90
2022-08-31T12:45:58.571Z,21.50
2022-08-31T12:48:47.168Z,21.20
2022-08-31T12:51:35.547Z,21.21
2022-08-31T12:54:17.642Z,21.01
2022-08-31T12:56:57.850Z,21.02
2022-08-31T12:59:59.822Z,21.16
2022-08-31T13:02:28.166Z,21.19
2022-08-31T13:04:55.018Z,21.19
2022-08-31T13:07:28.910Z,21.01
2022-08-31T13:10:29.517Z,21.11
2022-08-31T13:13:00.768Z,21.13
2022-08-31T13:15:36.174Z,20.97
2022-08-31T13:18:14.651Z,21.09
2022-08-31T13:20:44.220Z,21.19
2022-08-31T13:23:22.272Z,21.45
2022-08-31T13:26:25.923Z,21.60
2022-08-31T13:29:00.524Z,21.78
2022-08-31T13:31:30.707Z,21.90
2022-08-31T13:34:03.022Z,22.02
2022-08-31T13:36:40.428Z,22.20
2022-08-31T13:39:24.284Z,22.15
2022-08-31T13:42:10.836Z,21.90
2022-08-31T13:44:45.061Z,21.89
2022-08-31T13:47:21.436Z,21.90
2022-08-31T13:49:49.203Z,22.18
2022-08-31T13:52:36.340Z,22.54
2022-08-31T13:55:13.428Z,22.64
2022-08-31T13:57:41.744Z,22.74
2022-08-31T14:00:32.989Z,22.77
2022-08-31T14:03:29.776Z,22.97
2022-08-31T14:05:58.969Z,23.21
2022-08-31T14:08:28.384Z,23.37
2022-08-31T14:10:55.919Z,23.18
2022-08-31T14:13:27.972Z,23.09
2022-08-31T14:15:56.718Z,23.11
2022-08-31T14:18:55.384Z,23.28
2022-08-31T14:21:29.055Z,23.57
2022-08-31T14:24:04.694Z,24.31
2022-08-31T14:26:37.136Z,24.75
2022-08-31T14:29:12.470Z,25.17
2022-08-31T14:31:52.926Z,25.22
2022-08-31T14:34:35.784Z,25.63
2022-08-31T14:37:06.948Z,25.17
2022-08-31T14:39:38.325Z,25.04
2022-08-31T14:42:07.896Z,24.67
2022-08-31T14:44:42.475Z,23.80
2022-08-31T14:47:09.860Z,23.49
2022-08-31T14:49:37.069Z,23.27
2022-08-31T14:52:06.434Z,23.13
2022-08-31T14:54:37.481Z,22.83
2022-08-31T14:57:31.335Z,22.75
2022-08-31T15:00:02.171Z,22.86
2022-08-31T15:02:33.615Z,22.69
2022-08-31T15:05:06.422Z,22.45
2022-08-31T15:07:35.712Z,22.46
2022-08-31T15:10:04.224Z,22.41
2022-08-31T15:12:30.913Z,22.25
2022-08-31T15:15:00.503Z,22.26
2022-08-31T15:17:29.672Z,22.10
2022-08-31T15:19:57.514Z,21.92
2022-08-31T15:22:26.364Z,21.94
2022-08-31T15:24:54.191Z,21.86
2022-08-31T15:27:22.517Z,21.70
2022-08-31T15:29:51.830Z,21.49
2022-08-31T15:32:18.686Z,21.30
2022-08-31T15:34:57.820Z,21.32
2022-08-31T15:37:31.735Z,21.43
2022-08-31T15:40:02.085Z,21.51
2022-08-31T15:42:31.492Z,21.55
2022-08-31T15:44:58.369Z,21.54
2022-08-31T15:47:51.676Z,21.46
2022-08-31T15:50:20.305Z,21.41
2022-08-31T15:52:51.692Z,21.38
2022-08-31T15:55:21.853Z,21.47
2022-08-31T15:57:48.793Z,21.56
2022-08-31T16:00:15.992Z,21.68
2022-08-31T16:02:43.961Z,21.75
2022-08-31T16:05:11.982Z,21.83
2022-08-31T16:07:39.796Z,21.86
2022-08-31T16:10:16.703Z,21.91
2022-08-31T16:12:46.226Z,21.89
2022-08-31T16:15:15.683Z,21.96
2022-08-31T16:17:42.666Z,21.96
2022-08-31T16:20:12.135Z,21.93
2022-08-31T16:22:39.260Z,21.95
2022-08-31T16:25:07.093Z,22.05
2022-08-31T16:27:34.235Z,22.12
2022-08-31T16:30:01.127Z,22.44
2022-08-31T16:32:27.991Z,23.19
2022-08-31T16:34:56.659Z,23.95
2022-08-31T16:37:24.001Z,24.98
2022-08-31T16:39:50.895Z,25.53
2022-08-31T16:42:18.126Z,25.62
2022-08-31T16:44:46.921Z,26.07
2022-08-31T16:47:16.784Z,25.77
2022-08-31T16:49:44.228Z,25.43
2022-08-31T16:52:18.248Z,25.19
2022-08-31T16:54:51.164Z,24.93
2022-08-31T16:57:20.923Z,24.14
2022-08-31T16:59:48.893Z,24.30
2022-08-31T17:02:16.906Z,23.90
2022-08-31T17:04:53.364Z,23.97
2022-08-31T17:07:21.830Z,24.00
2022-08-31T17:09:49.214Z,22.68
2022-08-31T17:12:19.486Z,21.98
2022-08-31T17:14:51.498Z,21.52
2022-08-31T17:17:23.261Z,21.11
2022-08-31T17:19:52.278Z,20.94
2022-08-31T17:22:25.796Z,20.68
2022-08-31T17:24:57.849Z,20.41
2022-08-31T17:27:25.974Z,20.23
2022-08-31T17:29:55.386Z,20.20
2022-08-31T17:32:24.765Z,19.99
2022-08-31T17:34:54.610Z,19.92
2022-08-31T17:37:26.631Z,19.84
2022-08-31T17:39:54.074Z,19.79
2022-08-31T17:42:22.501Z,19.66
2022-08-31T17:44:53.171Z,19.54
2022-08-31T17:47:22.185Z,19.34
2022-08-31T17:49:51.164Z,19.31
2022-08-31T17:52:20.732Z,19.25
2022-08-31T17:54:47.745Z,19.14
2022-08-31T17:57:15.848Z,19.07
2022-08-31T17:59:46.712Z,18.97
2022-08-31T18:02:16.874Z,18.90
2022-08-31T18:04:43.874Z,18.86
2022-08-31T18:07:11.238Z,18.83
2022-08-31T18:09:42.862Z,18.82
2022-08-31T18:12:10.016Z,18.74
2022-08-31T18:14:38.546Z,18.80
2022-08-31T18:17:08.837Z,18.86
2022-08-31T18:19:36.705Z,18.95
2022-08-31T18:22:03.939Z,18.93
2022-08-31T18:24:36.627Z,18.92
2022-08-31T18:27:04.599Z,18.95
2022-08-31T18:29:34.309Z,18.88
2022-08-31T18:32:04.381Z,18.81
2022-08-31T18:34:39.148Z,18.80
2022-08-31T18:37:06.698Z,18.81
2022-08-31T18:39:59.690Z,18.72
2022-08-31T18:42:46.783Z,18.59
2022-08-31T18:45:16.951Z,18.46
2022-08-31T18:48:13.480Z,18.39
2022-08-31T18:50:37.259Z,18.32
2022-08-31T18:53:08.118Z,18.26
2022-08-31T18:55:41.067Z,18.17
2022-08-31T18:58:07.912Z,18.08
2022-08-31T19:00:34.850Z,17.98
2022-08-31T19:03:02.665Z,17.94
2022-08-31T19:05:31.641Z,17.90
2022-08-31T19:08:00.628Z,17.83
2022-08-31T19:10:28.178Z,17.77
2022-08-31T19:12:56.025Z,17.76
2022-08-31T19:15:25.431Z,17.76
2022-08-31T19:18:01.997Z,17.71
2022-08-31T19:20:29.365Z,17.60
2022-08-31T19:22:56.434Z,17.58
2022-08-31T19:25:23.485Z,17.57
2022-08-31T19:27:52.085Z,17.48
2022-08-31T19:30:25.996Z,17.47
2022-08-31T19:32:56.357Z,17.48
2022-08-31T19:35:25.912Z,17.47
2022-08-31T19:37:53.845Z,17.39
2022-08-31T19:40:21.437Z,17.38
2022-08-31T19:45:44.971Z,17.33
2022-08-31T19:48:12.500Z,17.27
2022-08-31T19:50:42.369Z,17.25
2022-08-31T19:53:12.736Z,17.25
2022-08-31T19:55:53.624Z,17.19
2022-08-31T19:58:26.634Z,17.20
2022-08-31T20:01:00.807Z,17.18
2022-08-31T20:03:28.408Z,17.11
2022-08-31T20:05:55.761Z,17.00
2022-08-31T20:08:22.532Z,17.01
2022-08-31T20:10:49.530Z,16.98
2022-08-31T20:13:16.345Z,16.92
2022-08-31T20:15:44.813Z,16.88
2022-08-31T20:18:12.898Z,16.86
2022-08-31T20:20:45.325Z,16.80
2022-08-31T20:23:17.127Z,16.75
2022-08-31T20:25:45.969Z,16.62
2022-08-31T20:28:13.393Z,16.56
2022-08-31T20:30:41.476Z,16.59
2022-08-31T20:33:09.773Z,16.61
2022-08-31T20:35:41.630Z,16.59
2022-08-31T20:38:13.304Z,16.51
2022-08-31T20:40:41.632Z,16.44
2022-08-31T20:43:10.874Z,16.43
2022-08-31T20:45:38.814Z,16.42
2022-08-31T20:48:24.700Z,16.38
2022-08-31T20:50:51.435Z,16.34
2022-08-31T20:53:24.840Z,16.34
2022-08-31T20:56:06.980Z,16.28
2022-08-31T20:58:33.706Z,16.36
2022-08-31T21:01:05.524Z,16.28
2022-08-31T21:03:32.196Z,16.30
2022-08-31T21:06:08.771Z,16.27
2022-08-31T21:08:38.335Z,16.24
2022-08-31T21:11:12.952Z,16.14
2022-08-31T21:13:39.745Z,16.19
2022-08-31T21:16:06.861Z,16.19
2022-08-31T21:18:34.912Z,16.16
2022-08-31T21:21:08.451Z,16.13
2022-08-31T21:23:36.872Z,16.04
2022-08-31T21:26:05.026Z,15.98
2022-08-31T21:28:31.834Z,15.98
2022-08-31T21:31:15.753Z,15.92
2022-08-31T21:33:46.407Z,15.92
2022-08-31T21:36:15.679Z,15.84
2022-08-31T21:38:43.128Z,15.89
2022-08-31T21:41:11.506Z,15.90
2022-08-31T21:43:39.083Z,15.88
2022-08-31T21:46:07.057Z,15.91
2022-08-31T21:48:35.185Z,15.94
2022-08-31T21:51:21.502Z,15.93
2022-08-31T21:53:51.800Z,15.93
2022-08-31T21:56:20.171Z,15.94
2022-08-31T21:58:47.905Z,15.94
2022-08-31T22:01:18.562Z,15.88
2022-08-31T22:03:49.521Z,15.86
2022-08-31T22:06:22.336Z,15.82
2022-08-31T22:09:02.069Z,15.82
2022-08-31T22:11:32.217Z,15.77
2022-08-31T22:13:59.491Z,15.68
2022-08-31T22:16:27.815Z,15.72
2022-08-31T22:19:01.772Z,15.72
2022-08-31T22:21:32.252Z,15.70
2022-08-31T22:24:04.417Z,15.69
2022-08-31T22:26:34.539Z,15.68
2022-08-31T22:29:01.311Z,15.66
2022-08-31T22:31:28.225Z,15.69
2022-08-31T22:33:55.035Z,15.70
2022-08-31T22:36:31.449Z,15.74
2022-08-31T22:39:12.871Z,15.66
2022-08-31T22:41:41.492Z,15.65
2022-08-31T22:44:16.368Z,15.66
2022-08-31T22:46:43.526Z,15.65
2022-08-31T22:49:11.142Z,15.67
2022-08-31T22:51:40.857Z,15.63
2022-08-31T22:54:10.427Z,15.60
2022-08-31T22:56:39.046Z,15.53
2022-08-31T22:59:09.873Z,15.51
2022-08-31T23:01:42.256Z,15.50
2022-08-31T23:04:10.235Z,15.47
2022-08-31T23:06:38.008Z,15.50
2022-08-31T23:09:10.618Z,15.49
2022-08-31T23:11:38.469Z,15.50
2022-08-31T23:14:10.235Z,15.41
2022-08-31T23:16:40.409Z,15.33
2022-08-31T23:19:20.178Z,15.34
2022-08-31T23:21:53.034Z,15.32
2022-08-31T23:24:28.738Z,15.36
2022-08-31T23:27:04.135Z,15.38
2022-08-31T23:29:45.752Z,15.38
2022-08-31T23:32:13.482Z,15.33
2022-08-31T23:34:41.983Z,15.31
2022-08-31T23:37:10.510Z,15.30
2022-08-31T23:39:40.477Z,15.30
2022-08-31T23:42:07.645Z,15.28
2022-08-31T23:44:36.224Z,15.22
2022-08-31T23:47:03.053Z,15.18
2022-08-31T23:49:29.858Z,15.19
2022-08-31T23:51:56.572Z,15.06
2022-08-31T23:54:23.370Z,15.01
2022-08-31T23:56:52.337Z,14.99
2022-08-31T23:59:19.949Z,15.01
